Terminal Aerodrome Forecast
Issued by NWS

Home | Current Version | Previous Version | Text Only | Print | Product List | Glossary On
Versions: 1 2 3 4 5 6 7 8 9 10 11 12 13 14 15 16 17 18 19 20 21 22 23 24 25 26
000
FTAK31 PANC 022341
TAFATK
TAF
PATK 022341Z 0300/0324 VRB03KT P6SM SCT250
     FM030600 VRB03KT P6SM BKN100
     FM031200 VRB03KT P6SM OVC060
     FM031500 VRB03KT P6SM VCSH SCT030 BKN060
     FM031800 VRB03KT 6SM -RA BR OVC025
      TEMPO 0321/0324 3SM -RA BR=

USA.gov is the U.S. government's official web portal to all federal, state and local government web resources and services.